createdAt,value
2023-03-06T00:03:39.063Z,22.80
2023-03-06T00:08:42.437Z,22.50
2023-03-06T00:13:46.097Z,22.80
2023-03-06T00:18:49.607Z,25.90
2023-03-06T00:23:53.063Z,17.90
2023-03-06T00:28:56.986Z,25.30
2023-03-06T00:34:00.387Z,28.40
2023-03-06T00:39:04.069Z,29.40
2023-03-06T00:44:08.002Z,25.70
2023-03-06T00:49:11.668Z,24.70
2023-03-06T00:54:15.261Z,23.30
2023-03-06T00:59:18.731Z,22.20
2023-03-06T01:04:22.268Z,27.40
2023-03-06T01:09:25.788Z,26.80
2023-03-06T01:14:31.375Z,26.10
2023-03-06T01:19:34.954Z,34.90
2023-03-06T01:24:38.703Z,37.70
2023-03-06T01:29:42.059Z,45.50
2023-03-06T01:34:47.770Z,48.00
2023-03-06T01:39:51.242Z,51.10
2023-03-06T01:45:04.722Z,59.30
2023-03-06T01:50:11.618Z,51.90
2023-03-06T01:55:19.274Z,54.90
2023-03-06T02:00:25.728Z,60.90
2023-03-06T02:05:29.521Z,52.70
2023-03-06T02:10:33.346Z,49.00
2023-03-06T02:15:36.775Z,49.80
2023-03-06T02:20:45.913Z,42.00
2023-03-06T02:30:57.065Z,32.70
2023-03-06T02:36:02.729Z,36.80
2023-03-06T02:41:08.694Z,37.00
2023-03-06T02:46:12.402Z,33.60
2023-03-06T02:51:16.350Z,34.60
2023-03-06T02:56:20.445Z,34.70
2023-03-06T03:01:23.907Z,41.80
2023-03-06T03:06:27.525Z,37.30
2023-03-06T03:11:31.698Z,36.50
2023-03-06T03:16:37.535Z,37.10
2023-03-06T03:21:42.539Z,38.10
2023-03-06T03:26:46.076Z,43.90
2023-03-06T03:31:51.740Z,37.30
2023-03-06T03:36:55.872Z,38.80
2023-03-06T03:41:59.995Z,49.00
2023-03-06T03:47:06.051Z,52.50
2023-03-06T03:52:09.832Z,49.00
2023-03-06T03:57:14.575Z,38.40
2023-03-06T04:02:21.983Z,43.50
2023-03-06T04:07:32.455Z,42.20
2023-03-06T04:12:37.219Z,41.90
2023-03-06T04:17:40.880Z,42.50
2023-03-06T04:22:47.344Z,42.50
2023-03-06T04:27:50.962Z,50.90
2023-03-06T04:32:55.072Z,64.00
2023-03-06T04:38:00.024Z,59.50
2023-03-06T04:43:06.141Z,70.10
2023-03-06T04:48:12.285Z,66.20
2023-03-06T04:53:16.335Z,66.00
2023-03-06T04:58:20.201Z,72.20
2023-03-06T05:03:23.727Z,64.00
2023-03-06T05:08:27.083Z,54.70
2023-03-06T05:13:30.762Z,47.70
2023-03-06T05:18:35.384Z,50.80
2023-03-06T05:23:38.996Z,43.20
2023-03-06T05:28:43.024Z,39.70
2023-03-06T05:33:46.418Z,44.90
2023-03-06T05:38:49.922Z,37.50
2023-03-06T05:43:54.319Z,43.10
2023-03-06T05:48:57.974Z,39.10
2023-03-06T05:54:01.522Z,40.60
2023-03-06T05:59:05.102Z,44.40
2023-03-06T06:04:08.511Z,42.10
2023-03-06T06:09:13.911Z,40.10
2023-03-06T06:14:17.507Z,35.70
2023-03-06T06:19:21.437Z,35.50
2023-03-06T06:24:26.259Z,40.50
2023-03-06T06:29:30.548Z,32.00
2023-03-06T06:34:34.176Z,32.20
2023-03-06T06:39:37.573Z,34.00
2023-03-06T06:44:41.265Z,31.10
2023-03-06T06:49:45.893Z,30.20
2023-03-06T06:54:49.424Z,24.60
2023-03-06T06:59:54.171Z,28.00
2023-03-06T07:05:04.280Z,22.10
2023-03-06T07:10:13.980Z,23.00
2023-03-06T07:15:18.026Z,26.10
2023-03-06T07:20:21.852Z,24.20
2023-03-06T07:25:25.516Z,21.50
2023-03-06T07:30:29.023Z,17.90
2023-03-06T07:35:32.757Z,17.90
2023-03-06T07:40:38.240Z,20.40
2023-03-06T07:45:41.960Z,16.40
2023-03-06T07:50:45.787Z,16.00
2023-03-06T07:55:49.193Z,21.10
2023-03-06T08:00:53.016Z,25.30
2023-03-06T08:06:05.644Z,22.60
2023-03-06T08:11:11.162Z,25.80
2023-03-06T08:16:15.013Z,28.50
2023-03-06T08:21:20.791Z,26.40
2023-03-06T08:26:26.282Z,30.80
2023-03-06T08:31:31.587Z,30.90
2023-03-06T08:36:35.273Z,39.40
2023-03-06T08:41:41.432Z,47.50
2023-03-06T08:46:44.912Z,39.80
2023-03-06T08:51:48.256Z,39.50
2023-03-06T08:56:51.690Z,41.00
2023-03-06T09:01:55.161Z,36.10
2023-03-06T09:07:00.801Z,27.50
2023-03-06T09:12:04.636Z,29.40
2023-03-06T09:17:08.078Z,31.10
2023-03-06T09:22:11.640Z,28.00
2023-03-06T09:27:18.174Z,31.00
2023-03-06T09:32:22.007Z,25.90
2023-03-06T09:37:25.448Z,28.00
2023-03-06T09:42:31.285Z,29.70
2023-03-06T09:47:45.221Z,23.40
2023-03-06T09:53:06.421Z,26.50
2023-03-06T09:58:16.453Z,27.60
2023-03-06T10:03:27.065Z,28.10
2023-03-06T10:08:42.667Z,26.40
2023-03-06T10:13:48.351Z,27.70
2023-03-06T10:18:52.263Z,18.80
2023-03-06T10:24:05.402Z,25.20
2023-03-06T10:29:34.205Z,23.30
2023-03-06T10:34:39.774Z,25.40
2023-03-06T10:39:43.204Z,30.10
2023-03-06T10:44:46.836Z,25.30
2023-03-06T10:49:58.545Z,20.70
2023-03-06T11:00:35.593Z,18.60
2023-03-06T11:05:39.327Z,18.20
2023-03-06T11:10:56.590Z,21.90
2023-03-06T11:16:03.825Z,19.80
2023-03-06T11:21:25.655Z,17.70
2023-03-06T11:26:36.123Z,17.00
2023-03-06T11:31:45.859Z,17.20
2023-03-06T11:36:53.345Z,16.70
2023-03-06T11:42:04.948Z,17.00
2023-03-06T11:47:17.318Z,18.50
2023-03-06T11:52:27.008Z,17.30
2023-03-06T11:57:39.259Z,17.80
2023-03-06T12:03:13.743Z,16.60
2023-03-06T12:08:36.184Z,17.30
2023-03-06T12:13:56.289Z,16.90
2023-03-06T12:19:12.769Z,20.00
2023-03-06T12:24:51.325Z,18.10
2023-03-06T12:30:19.222Z,14.80
2023-03-06T12:35:38.559Z,19.20
2023-03-06T12:40:57.375Z,23.00
2023-03-06T12:46:22.092Z,18.30
2023-03-06T12:51:26.037Z,19.70
2023-03-06T12:56:31.327Z,22.80
2023-03-06T13:01:54.965Z,26.10
2023-03-06T13:07:18.712Z,25.10
2023-03-06T13:12:38.474Z,23.80
2023-03-06T13:17:42.018Z,29.80
2023-03-06T13:22:47.216Z,27.30
2023-03-06T13:28:02.952Z,28.50
2023-03-06T13:33:38.450Z,36.70
2023-03-06T13:39:14.927Z,35.50
2023-03-06T13:44:51.297Z,31.40
2023-03-06T13:49:55.008Z,35.40
2023-03-06T13:55:09.576Z,32.00
2023-03-06T14:00:36.789Z,28.10
2023-03-06T14:05:44.531Z,22.90
2023-03-06T14:10:57.898Z,20.00
2023-03-06T14:16:01.567Z,24.80
2023-03-06T14:21:12.638Z,24.20
2023-03-06T14:26:18.948Z,21.20
2023-03-06T14:31:24.824Z,20.50
2023-03-06T14:36:33.879Z,27.40
2023-03-06T14:41:37.914Z,29.80
2023-03-06T14:46:41.550Z,29.60
2023-03-06T14:51:47.349Z,32.50
2023-03-06T14:56:53.558Z,29.60
2023-03-06T15:02:01.733Z,28.00
2023-03-06T15:07:10.205Z,31.40
2023-03-06T15:12:35.645Z,31.80
2023-03-06T15:17:41.102Z,43.60
2023-03-06T15:22:49.930Z,49.30
2023-03-06T15:27:56.481Z,60.50
2023-03-06T15:33:18.724Z,62.30
2023-03-06T15:38:29.669Z,55.20
2023-03-06T15:43:37.174Z,62.40
2023-03-06T15:48:50.421Z,62.50
2023-03-06T15:53:59.798Z,56.70
2023-03-06T15:59:16.267Z,76.60
2023-03-06T16:04:19.722Z,115.30
2023-03-06T16:09:23.300Z,189.30
2023-03-06T16:14:27.239Z,156.40
2023-03-06T16:19:30.878Z,113.60
2023-03-06T16:24:34.242Z,100.90
2023-03-06T16:29:38.067Z,131.10
2023-03-06T16:34:41.608Z,126.50
2023-03-06T16:39:45.266Z,116.50
2023-03-06T16:44:48.657Z,131.40
2023-03-06T16:49:56.865Z,132.40
2023-03-06T16:55:00.575Z,151.00
2023-03-06T17:00:06.307Z,127.60
2023-03-06T17:05:11.511Z,121.70
2023-03-06T17:10:18.261Z,119.70
2023-03-06T17:15:21.894Z,132.00
2023-03-06T17:20:25.373Z,129.30
2023-03-06T17:25:29.129Z,228.10
2023-03-06T17:30:32.519Z,424.50
2023-03-06T17:35:36.520Z,338.80
2023-03-06T17:40:40.103Z,348.80
2023-03-06T17:45:44.842Z,321.70
2023-03-06T17:50:54.358Z,251.60
2023-03-06T17:55:58.230Z,197.60
2023-03-06T18:01:08.543Z,156.80
2023-03-06T18:06:12.301Z,107.60
2023-03-06T18:11:16.813Z,72.90
2023-03-06T18:16:23.573Z,62.20
2023-03-06T18:21:27.267Z,54.50
2023-03-06T18:26:30.968Z,50.40
2023-03-06T18:31:36.181Z,54.80
2023-03-06T18:36:41.758Z,45.50
2023-03-06T18:41:45.128Z,57.00
2023-03-06T18:46:48.595Z,55.80
2023-03-06T18:51:52.012Z,64.30
2023-03-06T18:56:55.441Z,65.00
2023-03-06T19:01:58.786Z,81.60
2023-03-06T19:07:02.197Z,93.00
2023-03-06T19:12:06.926Z,78.60
2023-03-06T19:17:10.478Z,85.70
2023-03-06T19:22:14.010Z,88.20
2023-03-06T19:27:17.516Z,84.60
2023-03-06T19:32:21.751Z,102.50
2023-03-06T19:37:25.423Z,87.20
2023-03-06T19:42:29.535Z,81.50
2023-03-06T19:47:33.290Z,86.20
2023-03-06T19:52:38.583Z,78.80
2023-03-06T19:57:42.762Z,77.10
2023-03-06T20:02:46.337Z,75.50
2023-03-06T20:07:49.777Z,78.00
2023-03-06T20:12:53.421Z,77.30
2023-03-06T20:17:57.384Z,75.60
2023-03-06T20:23:03.856Z,72.30
2023-03-06T20:28:07.350Z,77.40
2023-03-06T20:33:10.764Z,82.20
2023-03-06T20:38:14.612Z,73.00
2023-03-06T20:43:18.071Z,69.10
2023-03-06T20:48:21.661Z,72.10
2023-03-06T20:53:26.216Z,72.70
2023-03-06T20:58:31.301Z,61.10
2023-03-06T21:03:34.924Z,69.90
2023-03-06T21:08:39.148Z,75.30
2023-03-06T21:13:43.314Z,76.50
2023-03-06T21:18:47.539Z,78.80
2023-03-06T21:23:51.213Z,76.40
2023-03-06T21:28:55.890Z,69.70
2023-03-06T21:34:00.019Z,69.50
2023-03-06T21:39:05.628Z,78.40
2023-03-06T21:44:10.453Z,79.00
2023-03-06T21:49:13.996Z,79.10
2023-03-06T21:54:17.896Z,86.30
2023-03-06T21:59:21.501Z,77.50
2023-03-06T22:04:25.616Z,80.40
2023-03-06T22:09:29.470Z,77.10
2023-03-06T22:14:33.014Z,80.80
2023-03-06T22:19:36.861Z,80.70
2023-03-06T22:24:40.582Z,78.80
2023-03-06T22:29:45.195Z,78.60
2023-03-06T22:34:49.379Z,89.00
2023-03-06T22:39:52.807Z,82.50
2023-03-06T22:44:56.311Z,85.40
2023-03-06T22:49:59.834Z,90.20
2023-03-06T22:55:03.954Z,76.70
2023-03-06T23:00:10.731Z,78.30
2023-03-06T23:05:14.734Z,81.90
2023-03-06T23:10:19.000Z,89.00
2023-03-06T23:15:41.385Z,83.10
2023-03-06T23:26:29.962Z,80.60
2023-03-06T23:31:33.976Z,95.00
2023-03-06T23:36:37.829Z,85.30
2023-03-06T23:41:41.477Z,76.40
2023-03-06T23:46:45.333Z,78.80
2023-03-06T23:51:49.031Z,81.20
2023-03-06T23:56:52.860Z,74.50
